• Join FlightAware (Why Join?)
  • Login
  • US Flag 
10:57AM EST


 

Airport Tracker/Info


-or-


 

Live Flight TrackerFlight Track Log ✈ WJA349 ✈ 16-Jun-2013 ✈ CYKA - CYYC

Flight Track Log - Related Links

Times and Time Zones

All times are in EDT time to prevent confusion due to time zone crossing. See the WJA349 flight status page for this flight to view local times or setup timezone preferences in your user account.

Time Position Orientation Groundspeed Altitude Reporting Facility
EDT Latitude Longitude Course Direction KTS MPH feet Rate Location/Type
10:03AM 50.6667 -120.3667 90° East 160 184 3,100  Level Vancouver Center
10:04AM 50.6667 -120.3000 90° East 170 196 5,200 2,160 Climbing Vancouver Center
10:05AM 50.6500 -120.2167 107° East 220 253 7,500 2,640 Climbing Vancouver Center
10:06AM 50.6667 -120.0833 79° East 270 311 10,500 2,760 Climbing Vancouver Center
10:07AM 50.6667 -119.9500 90° East 320 368 13,100 3,000 Climbing Vancouver Center
10:08AM 50.6500 -119.8000 100° East 350 403 16,600 3,300 Climbing Vancouver Center
10:09AM 50.6500 -119.6333 90° East 360 414 19,800 2,940 Climbing Vancouver Center
10:11AM 50.6333 -119.3167 95° East 400 460 24,800 2,640 Climbing Vancouver Center
10:12AM 50.6333 -119.1333 90° East 410 472 27,200 2,280 Climbing Vancouver Center
10:13AM 50.6167 -118.9500 98° East 420 483 29,400 2,100 Climbing Vancouver Center
10:14AM 50.6333 -118.7667 82° East 430 495 31,500 2,100 Climbing Vancouver Center
10:15AM 50.6167 -118.5667 97° East 440 506 33,700 1,740 Climbing Vancouver Center
10:16AM 50.6167 -118.3833 90° East 440 506 35,000 600 Climbing Vancouver Center
10:17AM 50.6000 -118.1833 97° East 430 495 35,000  Level Vancouver Center
10:18AM 50.5833 -118.0833 105° East 430 495 35,000  Level Edmonton Center
10:19AM 50.5833 -117.8667 90° East 430 495 35,000  Level Edmonton Center
10:20AM 50.6000 -117.6167 84° East 430 495 35,000  Level Vancouver Center
10:21AM 50.5833 -117.4333 98° East 430 495 35,000  Level Vancouver Center
10:22AM 50.5667 -117.2500 98° East 430 495 35,000  Level Vancouver Center
10:23AM 50.5667 -117.0667 90° East 440 506 35,000  Level Vancouver Center
10:24AM 50.5333 -116.9500 114° Southeast 430 495 35,000  Level Edmonton Center
10:25AM 50.5333 -116.6667 90° East 440 506 35,000  Level Vancouver Center
10:26AM 50.5333 -116.4833 90° East 440 506 35,000 -780 Level Vancouver Center
10:27AM 50.5167 -116.2833 97° East 430 495 33,500 -1,800 Descending Vancouver Center
10:28AM 50.5500 -116.1167 72° East 430 495 31,400 -2,040 Descending Vancouver Center
10:29AM 50.5833 -116.0167 62° Northeast 410 472 29,500 -1,920 Descending Edmonton Center
10:30AM 50.6167 -115.8667 71° East 400 460 27,700 -1,920 Descending Edmonton Center
10:31AM 50.6500 -115.6833 74° East 390 449 25,700 -1,860 Descending Edmonton Center
10:32AM 50.7000 -115.5333 62° Northeast 370 426 24,000 -1,800 Descending Edmonton Center
10:33AM 50.7333 -115.3833 71° East 360 414 22,200 -1,800 Descending Edmonton Center
10:34AM 50.7500 -115.2500 79° East 350 403 20,500 -1,800 Descending Edmonton Center
10:35AM 50.8000 -115.1000 62° Northeast 340 391 18,700 -1,620 Descending Edmonton Center
10:36AM 50.8333 -114.9833 66° East 340 391 17,300 -1,500 Descending Edmonton Center
10:37AM 50.8667 -114.8500 68° East 330 380 15,700 -1,740 Descending Edmonton Center
10:38AM 50.9000 -114.7000 71° East 320 368 13,900 -1,680 Descending Edmonton Center
10:39AM 50.9167 -114.5667 79° East 310 357 12,400 -1,560 Descending Edmonton Center
10:40AM 50.9667 -114.4333 59° Northeast 300 345 10,800 -1,320 Descending Edmonton Center
10:41AM 51.0000 -114.3167 66° East 290 334 9,800 -1,200 Descending Edmonton Center
10:42AM 51.0000 -114.2000 90° East 280 322 8,400 -1,020 Descending Edmonton Center
10:43AM 51.0000 -114.0667 90° East 260 299 7,800 -660 Descending Edmonton Center
10:44AM 50.9667 -113.9833 122° Southeast 220 253 7,100 -900 Descending Edmonton Center
10:45AM 51.0000 -113.9000 58° Northeast 190 219 6,100 -960 Descending Edmonton Center
10:46AM 51.0500 -113.9167 348° North 130 150 5,200 -780 Descending Edmonton Center
10:47AM 51.0667 -113.9500 309° West 130 150 4,600 -660 Descending Edmonton Center
10:48AM 51.0667 -114.0000 270° West 130 150 3,900 -600 Descending Edmonton Center
10:49AM 51.1000 -114.0667 309° West 130 150 3,500 -420 Descending Edmonton Center